Corrona, Mississippi
Current Conditions -  °F | °C
As of 5:53 AM on Friday 21 Nov 2014 (Local Time) from KTUP Reporting Station
Broken Clouds Broken Clouds  
Wind Chill: 38°   Ceiling: 5500
Heat Index: 41°   Visibility: 10mi
Dew Point: 34°   Wind: 5mph
Humidity: 76%   Direction: 40°NE
Pressure: 30.32"   Gusts: NA
Location:  34.433°N, 88.7018°W
Report Text: KTUP 211153Z 04004KT 10SM BKN055 BKN075 BKN100 05/01 A3032 RMK AO2 SLP267 T00500011 10061 20039 52012
Loading
Personal Weather Stations






























Interactive Weather Map New forecast layout! Learn more

10-Day Weather Forecast

Advertisements
Track Severe Weather on mobile